createdAt,value
2018-04-15T00:00:06.554Z,955.4
2018-04-15T00:01:06.534Z,955.4
2018-04-15T00:02:06.520Z,955.39
2018-04-15T00:03:06.509Z,955.33
2018-04-15T00:04:06.501Z,955.35
2018-04-15T00:05:06.487Z,955.3
2018-04-15T00:06:06.473Z,955.3
2018-04-15T00:07:06.461Z,955.29
2018-04-15T00:08:06.452Z,955.29
2018-04-15T00:09:06.439Z,955.27
2018-04-15T00:10:06.427Z,955.24
2018-04-15T00:11:06.418Z,955.2
2018-04-15T00:12:06.404Z,955.14
2018-04-15T00:13:06.391Z,955.18
2018-04-15T00:14:06.380Z,955.18
2018-04-15T00:15:06.370Z,955.12
2018-04-15T00:16:06.356Z,955.13
2018-04-15T00:17:06.345Z,955.11
2018-04-15T00:18:06.333Z,955.12
2018-04-15T00:19:06.322Z,955.1
2018-04-15T00:20:06.308Z,955.11
2018-04-15T00:21:06.297Z,955.09
2018-04-15T00:22:06.285Z,955.1
2018-04-15T00:23:06.273Z,955.04
2018-04-15T00:24:06.262Z,955
2018-04-15T00:25:06.250Z,954.99
2018-04-15T00:26:06.239Z,954.97
2018-04-15T00:27:06.226Z,954.95
2018-04-15T00:28:06.218Z,954.95
2018-04-15T00:29:06.204Z,954.98
2018-04-15T00:30:06.192Z,954.97
2018-04-15T00:31:06.181Z,954.98
2018-04-15T00:32:06.168Z,954.98
2018-04-15T00:33:06.160Z,954.94
2018-04-15T00:34:06.144Z,954.94
2018-04-15T00:35:06.137Z,954.92
2018-04-15T00:36:06.126Z,954.9
2018-04-15T00:37:06.110Z,954.86
2018-04-15T00:38:06.098Z,954.87
2018-04-15T00:39:06.085Z,954.85
2018-04-15T00:40:06.075Z,954.84
2018-04-15T00:41:06.062Z,954.83
2018-04-15T00:42:06.048Z,954.8
2018-04-15T00:43:06.037Z,954.79
2018-04-15T00:44:06.027Z,954.77
2018-04-15T00:45:06.014Z,954.77
2018-04-15T00:46:06.001Z,954.77
2018-04-15T00:47:05.992Z,954.73
2018-04-15T00:48:05.978Z,954.7
2018-04-15T00:49:05.966Z,954.69
2018-04-15T00:50:05.954Z,954.67
2018-04-15T00:51:05.945Z,954.66
2018-04-15T00:52:05.931Z,954.65
2018-04-15T00:53:05.917Z,954.64
2018-04-15T00:54:05.906Z,954.61
2018-04-15T00:55:05.895Z,954.59
2018-04-15T00:56:05.883Z,954.56
2018-04-15T00:57:05.872Z,954.56
2018-04-15T00:58:05.859Z,954.54
2018-04-15T00:59:05.853Z,954.57
2018-04-15T01:00:05.838Z,954.56
2018-04-15T01:01:05.825Z,954.52
2018-04-15T01:02:05.815Z,954.51
2018-04-15T01:03:05.802Z,954.48
2018-04-15T01:04:05.792Z,954.46
2018-04-15T01:05:05.779Z,954.48
2018-04-15T01:06:05.767Z,954.48
2018-04-15T01:07:05.755Z,954.43
2018-04-15T01:08:05.742Z,954.51
2018-04-15T01:09:05.731Z,954.47
2018-04-15T01:10:05.719Z,954.46
2018-04-15T01:11:05.708Z,954.41
2018-04-15T01:12:05.698Z,954.39
2018-04-15T01:13:05.684Z,954.37
2018-04-15T01:14:05.675Z,954.42
2018-04-15T01:15:05.660Z,954.35
2018-04-15T01:16:05.651Z,954.38
2018-04-15T01:17:05.636Z,954.38
2018-04-15T01:18:05.632Z,954.36
2018-04-15T01:19:05.612Z,954.37
2018-04-15T01:20:05.605Z,954.4
2018-04-15T01:21:05.595Z,954.38
2018-04-15T01:22:05.576Z,954.38
2018-04-15T01:23:05.565Z,954.35
2018-04-15T01:24:05.553Z,954.36
2018-04-15T01:25:05.542Z,954.32
2018-04-15T01:26:05.529Z,954.32
2018-04-15T01:27:05.518Z,954.31
2018-04-15T01:28:05.505Z,954.3
2018-04-15T01:29:05.492Z,954.27
2018-04-15T01:30:05.481Z,954.29
2018-04-15T01:31:05.471Z,954.28
2018-04-15T01:32:05.463Z,954.23
2018-04-15T01:33:05.447Z,954.23
2018-04-15T01:34:05.435Z,954.21
2018-04-15T01:35:05.425Z,954.19
2018-04-15T01:36:05.413Z,954.18
2018-04-15T01:37:05.400Z,954.15
2018-04-15T01:38:05.388Z,954.14
2018-04-15T01:39:05.376Z,954.09
2018-04-15T01:40:05.365Z,954.07
2018-04-15T01:41:05.354Z,954.06
2018-04-15T01:42:05.340Z,954.06
2018-04-15T01:43:05.330Z,954.03
2018-04-15T01:44:05.315Z,954.05
2018-04-15T01:45:05.304Z,954.03
2018-04-15T01:46:05.291Z,954.05
2018-04-15T01:47:05.280Z,954.12
2018-04-15T01:48:05.268Z,954.07
2018-04-15T01:49:05.256Z,954.08
2018-04-15T01:50:05.246Z,954.04
2018-04-15T01:51:05.235Z,954.01
2018-04-15T01:52:05.221Z,954
2018-04-15T01:53:05.209Z,953.97
2018-04-15T01:54:05.198Z,953.97
2018-04-15T01:55:05.183Z,954
2018-04-15T01:56:05.171Z,954
2018-04-15T01:57:05.159Z,953.98
2018-04-15T01:58:05.148Z,954
2018-04-15T01:59:05.138Z,953.99
2018-04-15T02:00:05.124Z,954.01
2018-04-15T02:01:05.112Z,953.95
2018-04-15T02:02:05.100Z,953.93
2018-04-15T02:03:05.086Z,954
2018-04-15T02:04:05.076Z,953.91
2018-04-15T02:05:05.063Z,953.97
2018-04-15T02:06:05.051Z,953.92
2018-04-15T02:07:05.040Z,953.91
2018-04-15T02:08:05.027Z,953.89
2018-04-15T02:09:05.015Z,953.9
2018-04-15T02:10:05.002Z,953.88
2018-04-15T02:11:04.991Z,953.86
2018-04-15T02:12:04.978Z,953.89
2018-04-15T02:13:04.967Z,953.81
2018-04-15T02:14:04.954Z,953.84
2018-04-15T02:15:04.941Z,953.79
2018-04-15T02:16:04.934Z,953.78
2018-04-15T02:17:04.917Z,953.77
2018-04-15T02:18:04.904Z,953.72
2018-04-15T02:19:04.894Z,953.71
2018-04-15T02:20:04.884Z,953.72
2018-04-15T02:21:04.868Z,953.73
2018-04-15T02:22:04.857Z,953.69
2018-04-15T02:23:04.845Z,953.71
2018-04-15T02:24:04.834Z,953.72
2018-04-15T02:25:04.819Z,953.68
2018-04-15T02:26:04.808Z,953.64
2018-04-15T02:27:04.796Z,953.69
2018-04-15T02:28:04.782Z,953.68
2018-04-15T02:29:04.771Z,953.67
2018-04-15T02:30:04.761Z,953.62
2018-04-15T02:31:04.747Z,953.62
2018-04-15T02:32:04.733Z,953.65
2018-04-15T02:33:04.722Z,953.63
2018-04-15T02:34:04.709Z,953.64
2018-04-15T02:35:04.697Z,953.63
2018-04-15T02:36:04.685Z,953.65
2018-04-15T02:37:04.673Z,953.67
2018-04-15T02:38:04.676Z,953.68
2018-04-15T02:39:04.647Z,953.68
2018-04-15T02:40:04.636Z,953.7
2018-04-15T02:41:04.621Z,953.72
2018-04-15T02:42:04.611Z,953.72
2018-04-15T02:43:04.599Z,953.73
2018-04-15T02:44:04.592Z,953.74
2018-04-15T02:45:04.575Z,953.68
2018-04-15T02:46:04.570Z,953.66
2018-04-15T02:47:04.552Z,953.66
2018-04-15T02:48:04.536Z,953.65
2018-04-15T02:49:04.523Z,953.59
2018-04-15T02:50:04.509Z,953.62
2018-04-15T02:51:04.498Z,953.63
2018-04-15T02:52:04.484Z,953.65
2018-04-15T02:53:04.476Z,953.61
2018-04-15T02:54:04.460Z,953.58
2018-04-15T02:55:04.448Z,953.58
2018-04-15T02:56:04.440Z,953.57
2018-04-15T02:57:04.422Z,953.54
2018-04-15T02:58:04.411Z,953.49
2018-04-15T02:59:04.398Z,953.51
2018-04-15T03:00:04.395Z,953.49
2018-04-15T03:01:04.372Z,953.54
2018-04-15T03:02:04.359Z,953.47
2018-04-15T03:03:04.346Z,953.41
2018-04-15T03:04:04.336Z,953.49
2018-04-15T03:05:04.323Z,953.49
2018-04-15T03:06:04.310Z,953.48
2018-04-15T03:07:04.296Z,953.51
2018-04-15T03:08:04.285Z,953.54
2018-04-15T03:09:04.273Z,953.52
2018-04-15T03:10:04.259Z,953.52
2018-04-15T03:11:04.246Z,953.56
2018-04-15T03:12:04.234Z,953.56
2018-04-15T03:13:04.220Z,953.53
2018-04-15T03:14:04.217Z,953.52
2018-04-15T03:15:04.196Z,953.56
2018-04-15T03:16:04.185Z,953.56
2018-04-15T03:17:04.170Z,953.59
2018-04-15T03:18:04.158Z,953.55
2018-04-15T03:19:04.145Z,953.54
2018-04-15T03:20:04.130Z,953.55
2018-04-15T03:21:04.118Z,953.51
2018-04-15T03:22:04.112Z,953.54
2018-04-15T03:23:04.094Z,953.49
2018-04-15T03:24:04.082Z,953.5
2018-04-15T03:25:04.074Z,953.48
2018-04-15T03:26:04.056Z,953.48
2018-04-15T03:27:04.044Z,953.47
2018-04-15T03:28:04.031Z,953.48
2018-04-15T03:29:04.018Z,953.46
2018-04-15T03:30:04.004Z,953.48
2018-04-15T03:31:03.991Z,953.46
2018-04-15T03:32:03.979Z,953.43
2018-04-15T03:33:03.966Z,953.41
2018-04-15T03:34:03.958Z,953.46
2018-04-15T03:35:03.941Z,953.45
2018-04-15T03:36:03.929Z,953.42
2018-04-15T03:37:03.916Z,953.45
2018-04-15T03:38:03.902Z,953.44
2018-04-15T03:39:03.891Z,953.46
2018-04-15T03:40:03.878Z,953.49
2018-04-15T03:41:03.865Z,953.48
2018-04-15T03:42:03.851Z,953.48
2018-04-15T03:43:03.841Z,953.49
2018-04-15T03:44:03.825Z,953.5
2018-04-15T03:45:03.813Z,953.47
2018-04-15T03:46:03.800Z,953.42
2018-04-15T03:47:03.788Z,953.48
2018-04-15T03:48:03.775Z,953.42
2018-04-15T03:49:03.762Z,953.45
2018-04-15T03:50:03.749Z,953.44
2018-04-15T03:51:03.737Z,953.44
2018-04-15T03:52:03.723Z,953.44
2018-04-15T03:53:03.713Z,953.44
2018-04-15T03:54:03.698Z,953.43
2018-04-15T03:55:03.686Z,953.41
2018-04-15T03:56:03.671Z,953.41
2018-04-15T03:57:03.659Z,953.38
2018-04-15T03:58:03.648Z,953.42
2018-04-15T03:59:03.634Z,953.4
2018-04-15T04:00:03.619Z,953.42
2018-04-15T04:01:03.608Z,953.42
2018-04-15T04:02:03.594Z,953.45
2018-04-15T04:03:03.582Z,953.44
2018-04-15T04:04:03.569Z,953.43
2018-04-15T04:05:03.556Z,953.42
2018-04-15T04:06:03.544Z,953.44
2018-04-15T04:07:03.529Z,953.47
2018-04-15T04:08:03.517Z,953.46
2018-04-15T04:09:03.505Z,953.46
2018-04-15T04:10:03.493Z,953.46
2018-04-15T04:11:03.478Z,953.5
2018-04-15T04:12:03.466Z,953.49
2018-04-15T04:13:03.455Z,953.49
2018-04-15T04:14:03.439Z,953.46
2018-04-15T04:15:03.425Z,953.48
2018-04-15T04:16:03.415Z,953.46
2018-04-15T04:17:03.402Z,953.49
2018-04-15T04:18:03.388Z,953.42
2018-04-15T04:19:03.376Z,953.4
2018-04-15T04:20:03.361Z,953.4
2018-04-15T04:21:03.349Z,953.42
2018-04-15T04:22:03.336Z,953.42
2018-04-15T04:23:03.323Z,953.42
2018-04-15T04:24:03.311Z,953.41
2018-04-15T04:25:03.297Z,953.4
2018-04-15T04:26:03.284Z,953.38
2018-04-15T04:27:03.272Z,953.32
2018-04-15T04:28:03.289Z,953.32
2018-04-15T04:29:03.248Z,953.28
2018-04-15T04:30:03.233Z,953.21
2018-04-15T04:31:03.219Z,953.22
2018-04-15T04:32:03.207Z,953.17
2018-04-15T04:33:03.194Z,953.17
2018-04-15T04:34:03.181Z,953.16
2018-04-15T04:35:03.167Z,953.17
2018-04-15T04:36:03.154Z,953.21
2018-04-15T04:37:03.142Z,953.2
2018-04-15T04:38:03.130Z,953.24
2018-04-15T04:39:03.116Z,953.16
2018-04-15T04:40:03.103Z,953.18
2018-04-15T04:41:03.090Z,953.19
2018-04-15T04:42:03.085Z,953.16
2018-04-15T04:43:03.068Z,953.18
2018-04-15T04:44:03.052Z,953.15
2018-04-15T04:45:03.046Z,953.11
2018-04-15T04:46:03.026Z,953.14
2018-04-15T04:47:03.014Z,953.13
2018-04-15T04:48:03.000Z,953.12
2018-04-15T04:49:02.989Z,953.1
2018-04-15T04:50:02.976Z,953.07
2018-04-15T04:51:02.961Z,953.12
2018-04-15T04:52:02.952Z,953.09
2018-04-15T04:53:02.936Z,953.1
2018-04-15T04:54:02.922Z,953.12
2018-04-15T04:55:02.912Z,953.07
2018-04-15T04:56:02.905Z,953.06
2018-04-15T04:57:02.886Z,953.03
2018-04-15T04:58:02.871Z,953.01
2018-04-15T04:59:02.860Z,953.04
2018-04-15T05:00:02.851Z,953.03
2018-04-15T05:01:02.834Z,952.99
2018-04-15T05:02:02.821Z,952.98
2018-04-15T05:03:02.810Z,952.94
2018-04-15T05:04:02.796Z,952.97
2018-04-15T05:05:02.783Z,952.97
2018-04-15T05:06:02.771Z,952.92
2018-04-15T05:07:02.759Z,952.89
2018-04-15T05:08:02.747Z,952.86
2018-04-15T05:09:02.732Z,952.82
2018-04-15T05:10:02.721Z,952.8
2018-04-15T05:11:02.709Z,952.79
2018-04-15T05:12:02.697Z,952.77
2018-04-15T05:13:02.684Z,952.72
2018-04-15T05:14:02.673Z,952.69
2018-04-15T05:15:02.667Z,952.66
2018-04-15T05:16:02.647Z,952.63
2018-04-15T05:17:02.646Z,952.58
2018-04-15T05:18:02.624Z,952.56
2018-04-15T05:19:02.612Z,952.56
2018-04-15T05:20:02.598Z,952.51
2018-04-15T05:21:02.587Z,952.49
2018-04-15T05:22:02.575Z,952.51
2018-04-15T05:23:02.563Z,952.51
2018-04-15T05:24:02.552Z,952.44
2018-04-15T05:25:02.540Z,952.45
2018-04-15T05:26:02.527Z,952.49
2018-04-15T05:27:02.515Z,952.46
2018-04-15T05:28:02.505Z,952.49
2018-04-15T05:29:02.492Z,952.42
2018-04-15T05:30:02.496Z,952.4
2018-04-15T05:31:02.470Z,952.43
2018-04-15T05:32:02.457Z,952.43
2018-04-15T05:33:02.446Z,952.44
2018-04-15T05:34:02.437Z,952.4
2018-04-15T05:35:02.421Z,952.41
2018-04-15T05:36:02.411Z,952.41
2018-04-15T05:37:02.404Z,952.31
2018-04-15T05:38:02.388Z,952.34
2018-04-15T05:39:02.376Z,952.34
2018-04-15T05:40:02.366Z,952.31
2018-04-15T05:41:02.354Z,952.32
2018-04-15T05:42:02.416Z,952.29
2018-04-15T05:43:02.361Z,952.29
2018-04-15T05:44:02.348Z,952.31
2018-04-15T05:45:02.355Z,952.34
2018-04-15T05:46:02.320Z,952.3
2018-04-15T05:47:02.316Z,952.3
2018-04-15T05:48:02.335Z,952.22
2018-04-15T05:49:02.280Z,952.22
2018-04-15T05:50:02.285Z,952.18
2018-04-15T05:51:02.248Z,952.15
2018-04-15T05:52:02.236Z,952.13
2018-04-15T05:53:02.222Z,952.14
2018-04-15T05:54:02.211Z,952.12
2018-04-15T05:55:02.205Z,952.17
2018-04-15T05:56:02.192Z,952.16
2018-04-15T05:57:02.180Z,952.21
2018-04-15T05:58:02.171Z,952.19
2018-04-15T05:59:02.160Z,952.14
2018-04-15T06:00:02.148Z,952.17
2018-04-15T06:01:02.138Z,952.16
2018-04-15T06:02:02.131Z,952.15
2018-04-15T06:03:02.123Z,952.17
2018-04-15T06:04:02.110Z,952.19
2018-04-15T06:05:02.098Z,952.2
2018-04-15T06:06:02.089Z,952.22
2018-04-15T06:07:02.077Z,952.19
2018-04-15T06:08:02.067Z,952.21
2018-04-15T06:09:02.057Z,952.23
2018-04-15T06:10:02.048Z,952.23
2018-04-15T06:11:02.039Z,952.21
2018-04-15T06:12:02.028Z,952.18
2018-04-15T06:13:02.024Z,952.24
2018-04-15T06:14:02.008Z,952.23
2018-04-15T06:15:01.998Z,952.21
2018-04-15T06:16:01.991Z,952.23
2018-04-15T06:17:01.987Z,952.18
2018-04-15T06:18:01.972Z,952.15
2018-04-15T06:19:01.961Z,952.15
2018-04-15T06:20:01.956Z,952.12
2018-04-15T06:21:01.943Z,952.14
2018-04-15T06:22:01.934Z,952.16
2018-04-15T06:23:01.926Z,952.12
2018-04-15T06:24:01.917Z,952.09
2018-04-15T06:25:01.909Z,952.1
2018-04-15T06:26:01.898Z,952.05
2018-04-15T06:27:01.889Z,952.03
2018-04-15T06:28:01.880Z,952.04
2018-04-15T06:29:01.872Z,952.02
2018-04-15T06:30:01.861Z,952.04
2018-04-15T06:31:01.854Z,952.02
2018-04-15T06:32:01.845Z,952.03
2018-04-15T06:33:01.849Z,952.01
2018-04-15T06:34:01.826Z,952.04
2018-04-15T06:35:01.821Z,952.07
2018-04-15T06:36:01.812Z,952.07
2018-04-15T06:37:01.802Z,952.06
2018-04-15T06:38:01.796Z,952.08
2018-04-15T06:39:01.790Z,952.04
2018-04-15T06:40:01.783Z,952.06
2018-04-15T06:41:01.770Z,952.04
2018-04-15T06:42:01.763Z,952.03
2018-04-15T06:43:01.756Z,952.02
2018-04-15T06:44:01.748Z,952
2018-04-15T06:45:01.740Z,951.97
2018-04-15T06:46:01.733Z,951.96
2018-04-15T06:47:01.726Z,951.93
2018-04-15T06:48:01.716Z,951.93
2018-04-15T06:49:01.710Z,951.93
2018-04-15T06:50:01.706Z,951.93
2018-04-15T06:51:01.704Z,951.88
2018-04-15T06:52:01.693Z,951.86
2018-04-15T06:53:01.686Z,951.85
2018-04-15T06:54:01.681Z,951.77
2018-04-15T06:55:01.681Z,951.76
2018-04-15T06:56:01.674Z,951.73
2018-04-15T06:57:01.663Z,951.67
2018-04-15T06:58:01.657Z,951.65
2018-04-15T06:59:01.651Z,951.66
2018-04-15T07:00:01.674Z,951.71
2018-04-15T07:01:01.643Z,951.71
2018-04-15T07:02:01.636Z,951.75
2018-04-15T07:03:01.631Z,951.76
2018-04-15T07:04:01.626Z,951.74
2018-04-15T07:05:01.622Z,951.74
2018-04-15T07:06:01.617Z,951.73
2018-04-15T07:07:01.610Z,951.72
2018-04-15T07:08:01.606Z,951.75
2018-04-15T07:09:01.601Z,951.74
2018-04-15T07:10:01.597Z,951.78
2018-04-15T07:11:01.592Z,951.81
2018-04-15T07:12:01.589Z,951.79
2018-04-15T07:13:01.583Z,951.82
2018-04-15T07:14:01.580Z,951.83
2018-04-15T07:15:01.576Z,951.84
2018-04-15T07:16:01.572Z,951.86
2018-04-15T07:17:01.565Z,951.86
2018-04-15T07:18:01.561Z,951.85
2018-04-15T07:19:01.559Z,951.81
2018-04-15T07:20:01.559Z,951.78
2018-04-15T07:21:01.550Z,951.84
2018-04-15T07:22:01.546Z,951.81
2018-04-15T07:23:01.544Z,951.84
2018-04-15T07:24:01.539Z,951.85
2018-04-15T07:25:01.535Z,951.8
2018-04-15T07:26:01.530Z,951.82
2018-04-15T07:27:01.530Z,951.82
2018-04-15T07:28:01.530Z,951.79
2018-04-15T07:29:01.519Z,951.74
2018-04-15T07:30:01.517Z,951.77
2018-04-15T07:31:01.526Z,951.76
2018-04-15T07:32:01.509Z,951.72
2018-04-15T07:33:01.506Z,951.68
2018-04-15T07:34:01.503Z,951.7
2018-04-15T07:35:01.499Z,951.68
2018-04-15T07:36:01.496Z,951.67
2018-04-15T07:37:01.494Z,951.66
2018-04-15T07:38:01.494Z,951.65
2018-04-15T07:39:01.487Z,951.66
2018-04-15T07:40:01.483Z,951.67
2018-04-15T07:41:01.480Z,951.73
2018-04-15T07:42:01.478Z,951.7
2018-04-15T07:43:01.472Z,951.67
2018-04-15T07:44:01.471Z,951.67
2018-04-15T07:45:01.467Z,951.66
2018-04-15T07:46:01.464Z,951.67
2018-04-15T07:47:01.462Z,951.69
2018-04-15T07:48:01.460Z,951.68
2018-04-15T07:49:01.460Z,951.68
2018-04-15T07:50:01.451Z,951.64
2018-04-15T07:51:01.449Z,951.61
2018-04-15T07:52:01.446Z,951.63
2018-04-15T07:53:01.448Z,951.61
2018-04-15T07:54:01.440Z,951.64
2018-04-15T07:55:01.438Z,951.62
2018-04-15T07:56:01.436Z,951.62
2018-04-15T07:57:01.432Z,951.6
2018-04-15T07:58:01.429Z,951.6
2018-04-15T07:59:01.427Z,951.58
2018-04-15T08:00:01.424Z,951.58
2018-04-15T08:01:01.420Z,951.57
2018-04-15T08:02:01.416Z,951.59
2018-04-15T08:03:01.413Z,951.6
2018-04-15T08:04:01.410Z,951.6
2018-04-15T08:05:01.407Z,951.57
2018-04-15T08:06:01.405Z,951.61
2018-04-15T08:07:01.401Z,951.6
2018-04-15T08:08:01.397Z,951.6
2018-04-15T08:09:01.395Z,951.61
2018-04-15T08:10:01.393Z,951.58
2018-04-15T08:11:01.389Z,951.56
2018-04-15T08:12:01.386Z,951.57
2018-04-15T08:13:01.386Z,951.55
2018-04-15T08:14:01.380Z,951.57
2018-04-15T08:15:01.379Z,951.57
2018-04-15T08:16:01.373Z,951.54
2018-04-15T08:17:01.372Z,951.6
2018-04-15T08:18:01.368Z,951.5
2018-04-15T08:19:01.364Z,951.49
2018-04-15T08:20:01.364Z,951.5
2018-04-15T08:21:01.358Z,951.47
2018-04-15T08:22:01.356Z,951.52
2018-04-15T08:23:01.352Z,951.51
2018-04-15T08:24:01.351Z,951.5
2018-04-15T08:25:01.347Z,951.56
2018-04-15T08:26:01.345Z,951.53
2018-04-15T08:27:01.342Z,951.52
2018-04-15T08:28:01.337Z,951.47
2018-04-15T08:29:01.339Z,951.45
2018-04-15T08:30:01.332Z,951.43
2018-04-15T08:31:01.330Z,951.41
2018-04-15T08:32:01.327Z,951.42
2018-04-15T08:33:01.326Z,951.46
2018-04-15T08:34:01.323Z,951.46
2018-04-15T08:35:01.319Z,951.41
2018-04-15T08:36:01.319Z,951.39
2018-04-15T08:37:01.314Z,951.39
2018-04-15T08:38:01.312Z,951.38
2018-04-15T08:39:01.311Z,951.37
2018-04-15T08:40:01.309Z,951.33
2018-04-15T08:41:01.306Z,951.31
2018-04-15T08:42:01.303Z,951.35
2018-04-15T08:43:01.301Z,951.34
2018-04-15T08:44:01.301Z,951.31
2018-04-15T08:45:01.301Z,951.34
2018-04-15T08:46:01.294Z,951.34
2018-04-15T08:47:01.292Z,951.31
2018-04-15T08:48:01.291Z,951.3
2018-04-15T08:49:01.287Z,951.33
2018-04-15T08:50:01.287Z,951.3
2018-04-15T08:51:01.285Z,951.34
2018-04-15T08:52:01.281Z,951.28
2018-04-15T08:53:01.280Z,951.31
2018-04-15T08:54:01.278Z,951.28
2018-04-15T08:55:01.277Z,951.29
2018-04-15T08:56:01.275Z,951.3
2018-04-15T08:57:01.273Z,951.27
2018-04-15T08:58:01.272Z,951.27
2018-04-15T08:59:01.269Z,951.29
2018-04-15T09:00:01.268Z,951.33
2018-04-15T09:01:01.265Z,951.35
2018-04-15T09:02:01.263Z,951.34
2018-04-15T09:03:01.260Z,951.34
2018-04-15T09:04:01.258Z,951.3
2018-04-15T09:05:01.257Z,951.31
2018-04-15T09:06:01.255Z,951.3
2018-04-15T09:07:01.250Z,951.28
2018-04-15T09:08:01.251Z,951.31
2018-04-15T09:09:01.262Z,951.26
2018-04-15T09:10:01.247Z,951.29
2018-04-15T09:11:01.246Z,951.26
2018-04-15T09:12:01.246Z,951.27
2018-04-15T09:13:01.243Z,951.26
2018-04-15T09:14:01.238Z,951.33
2018-04-15T09:15:01.238Z,951.3
2018-04-15T09:16:01.236Z,951.31
2018-04-15T09:17:01.234Z,951.31
2018-04-15T09:18:01.231Z,951.31
2018-04-15T09:19:01.231Z,951.28
2018-04-15T09:20:01.235Z,951.28
2018-04-15T09:21:01.225Z,951.28
2018-04-15T09:22:01.224Z,951.27
2018-04-15T09:23:01.224Z,951.25
2018-04-15T09:24:01.222Z,951.27
2018-04-15T09:25:01.220Z,951.24
2018-04-15T09:26:01.216Z,951.21
2018-04-15T09:27:01.218Z,951.21
2018-04-15T09:28:01.212Z,951.19
2018-04-15T09:29:01.211Z,951.16
2018-04-15T09:30:01.216Z,951.19
2018-04-15T09:31:01.210Z,951.18
2018-04-15T09:32:01.206Z,951.19
2018-04-15T09:33:01.203Z,951.15
2018-04-15T09:34:01.201Z,951.16
2018-04-15T09:35:01.201Z,951.12
2018-04-15T09:36:01.197Z,951.14
2018-04-15T09:37:01.194Z,951.14
2018-04-15T09:38:01.193Z,951.16
2018-04-15T09:39:01.190Z,951.12
2018-04-15T09:40:01.187Z,951.13
2018-04-15T09:41:01.226Z,951.14
2018-04-15T09:42:01.184Z,951.17
2018-04-15T09:43:01.182Z,951.16
2018-04-15T09:44:01.179Z,951.15
2018-04-15T09:45:01.177Z,951.11
2018-04-15T09:46:01.174Z,951.11
2018-04-15T09:47:01.179Z,951.07
2018-04-15T09:48:01.169Z,951.11
2018-04-15T09:49:01.174Z,951.12
2018-04-15T09:50:01.164Z,951.1
2018-04-15T09:51:01.165Z,951.14
2018-04-15T09:52:01.160Z,951.06
2018-04-15T09:53:01.159Z,951
2018-04-15T09:54:01.155Z,951.03
2018-04-15T09:55:01.154Z,951.02
2018-04-15T09:56:01.152Z,951.06
2018-04-15T09:57:01.155Z,951.03
2018-04-15T09:58:01.149Z,951.05
2018-04-15T09:59:01.147Z,951.07
2018-04-15T10:00:01.145Z,951.04
2018-04-15T10:01:01.143Z,951.02
2018-04-15T10:02:01.140Z,950.99
2018-04-15T10:03:01.139Z,951
2018-04-15T10:04:01.139Z,951
2018-04-15T10:05:01.136Z,951
2018-04-15T10:06:01.135Z,951.01
2018-04-15T10:07:01.133Z,951.02
2018-04-15T10:08:01.132Z,950.97
2018-04-15T10:09:01.131Z,950.97
2018-04-15T10:10:01.132Z,950.95
2018-04-15T10:11:01.129Z,950.96
2018-04-15T10:12:01.128Z,950.97
2018-04-15T10:13:01.126Z,950.99
2018-04-15T10:14:01.125Z,951
2018-04-15T10:15:01.127Z,951.02
2018-04-15T10:16:01.125Z,951.01
2018-04-15T10:17:01.123Z,950.99
2018-04-15T10:18:01.127Z,951.05
2018-04-15T10:19:01.123Z,951.06
2018-04-15T10:20:01.121Z,951.06
2018-04-15T10:21:01.120Z,951.03
2018-04-15T10:22:01.121Z,951.02
2018-04-15T10:23:01.121Z,951.01
2018-04-15T10:24:01.173Z,951.02
2018-04-15T10:25:01.120Z,950.99
2018-04-15T10:26:01.117Z,950.96
2018-04-15T10:27:01.115Z,950.96
2018-04-15T10:28:01.116Z,950.93
2018-04-15T10:29:01.116Z,950.95
2018-04-15T10:30:01.117Z,950.91
2018-04-15T10:31:01.116Z,950.92
2018-04-15T10:32:01.116Z,950.95
2018-04-15T10:33:01.115Z,950.94
2018-04-15T10:34:01.115Z,950.96
2018-04-15T10:35:01.113Z,950.99
2018-04-15T10:36:01.115Z,950.94
2018-04-15T10:37:01.113Z,950.94
2018-04-15T10:38:01.121Z,950.89
2018-04-15T10:39:01.112Z,950.88
2018-04-15T10:40:01.113Z,950.84
2018-04-15T10:41:01.119Z,950.85
2018-04-15T10:42:01.110Z,950.89
2018-04-15T10:43:01.110Z,950.91
2018-04-15T10:44:01.111Z,950.92
2018-04-15T10:45:01.112Z,950.91
2018-04-15T10:46:01.152Z,950.91
2018-04-15T10:47:01.113Z,950.9
2018-04-15T10:48:01.109Z,950.88
2018-04-15T10:49:01.108Z,950.88
2018-04-15T10:50:01.107Z,950.88
2018-04-15T10:51:01.107Z,950.88
2018-04-15T10:52:01.106Z,950.88
2018-04-15T10:53:01.106Z,950.89
2018-04-15T10:54:01.105Z,950.88
2018-04-15T10:55:01.108Z,950.91
2018-04-15T10:56:01.103Z,950.92
2018-04-15T10:57:01.102Z,950.93
2018-04-15T10:58:01.104Z,950.94
2018-04-15T10:59:01.102Z,950.93
2018-04-15T11:00:01.100Z,950.94
2018-04-15T11:01:01.100Z,950.9
2018-04-15T11:02:01.103Z,950.93
2018-04-15T11:03:01.100Z,950.89
2018-04-15T11:04:01.099Z,950.92
2018-04-15T11:05:01.102Z,950.87
2018-04-15T11:06:01.096Z,950.82
2018-04-15T11:07:01.100Z,950.89
2018-04-15T11:08:01.096Z,950.86
2018-04-15T11:09:01.095Z,950.88
2018-04-15T11:10:01.097Z,950.85
2018-04-15T11:11:01.092Z,950.86
2018-04-15T11:12:01.094Z,950.86
2018-04-15T11:13:01.093Z,950.85
2018-04-15T11:14:01.122Z,950.81
2018-04-15T11:15:01.089Z,950.87
2018-04-15T11:16:01.088Z,950.84
2018-04-15T11:17:01.088Z,950.88
2018-04-15T11:18:01.085Z,950.86
2018-04-15T11:19:01.083Z,950.85
2018-04-15T11:20:01.145Z,950.84
2018-04-15T11:21:01.082Z,950.8
2018-04-15T11:22:01.080Z,950.79
2018-04-15T11:23:01.079Z,950.78
2018-04-15T11:24:01.079Z,950.78
2018-04-15T11:25:01.079Z,950.8
2018-04-15T11:26:01.074Z,950.82
2018-04-15T11:27:01.073Z,950.77
2018-04-15T11:28:01.073Z,950.8
2018-04-15T11:29:01.129Z,950.81
2018-04-15T11:30:01.073Z,950.78
2018-04-15T11:31:01.069Z,950.75
2018-04-15T11:32:01.070Z,950.76
2018-04-15T11:33:01.066Z,950.72
2018-04-15T11:34:01.064Z,950.69
2018-04-15T11:35:01.066Z,950.71
2018-04-15T11:36:01.062Z,950.69
2018-04-15T11:37:01.065Z,950.69
2018-04-15T11:38:01.062Z,950.7
2018-04-15T11:39:01.059Z,950.7
2018-04-15T11:40:01.059Z,950.69
2018-04-15T11:41:01.057Z,950.69
2018-04-15T11:42:01.094Z,950.67
2018-04-15T11:43:01.056Z,950.68
2018-04-15T11:44:01.054Z,950.65
2018-04-15T11:45:01.054Z,950.6
2018-04-15T11:46:01.054Z,950.6
2018-04-15T11:47:01.052Z,950.58
2018-04-15T11:48:01.052Z,950.57
2018-04-15T11:49:01.051Z,950.57
2018-04-15T11:50:01.051Z,950.59
2018-04-15T11:51:01.050Z,950.57
2018-04-15T11:52:01.050Z,950.6
2018-04-15T11:53:01.049Z,950.57
2018-04-15T11:54:01.049Z,950.61
2018-04-15T11:55:01.050Z,950.57
2018-04-15T11:56:01.050Z,950.57
2018-04-15T11:57:01.050Z,950.55
2018-04-15T11:58:01.048Z,950.59
2018-04-15T11:59:01.048Z,950.58
2018-04-15T12:00:01.047Z,950.57
2018-04-15T12:01:01.048Z,950.57
2018-04-15T12:02:01.050Z,950.57
2018-04-15T12:03:01.047Z,950.55
2018-04-15T12:04:01.048Z,950.52
2018-04-15T12:05:01.048Z,950.5
2018-04-15T12:06:01.046Z,950.48
2018-04-15T12:07:01.047Z,950.45
2018-04-15T12:08:01.047Z,950.44
2018-04-15T12:09:01.046Z,950.47
2018-04-15T12:10:01.049Z,950.43
2018-04-15T12:11:01.047Z,950.43
2018-04-15T12:12:01.047Z,950.43
2018-04-15T12:13:01.046Z,950.44
2018-04-15T12:14:01.046Z,950.43
2018-04-15T12:15:01.047Z,950.42
2018-04-15T12:16:01.047Z,950.38
2018-04-15T12:17:01.047Z,950.39
2018-04-15T12:18:01.048Z,950.38
2018-04-15T12:19:01.047Z,950.4
2018-04-15T12:20:01.046Z,950.39
2018-04-15T12:21:01.052Z,950.36
2018-04-15T12:22:01.047Z,950.35
2018-04-15T12:23:01.048Z,950.38
2018-04-15T12:24:01.047Z,950.33
2018-04-15T12:25:01.047Z,950.33
2018-04-15T12:26:01.047Z,950.29
2018-04-15T12:27:01.046Z,950.28
2018-04-15T12:28:01.045Z,950.27
2018-04-15T12:29:01.046Z,950.22
2018-04-15T12:30:01.046Z,950.27
2018-04-15T12:31:01.045Z,950.21